Overview Statistics Trail Chart Weather Telemetry Raw packets
 

This is the latest recevied weather packets stored in our database for station/object KG4GJX. If no packets are shown the sender has not sent any weather packets the latest 10 day(s).

<< 1 2 3 4 5 6 >>
Time Temp. Humidity Pressure Rain* Wind** Luminosity Snow
1788628604 32.78° C 56% 1014.9 hPa 0 mm - - -
1788627942 33.33° C 55% 1014.9 hPa 0 mm - - -
1788627280 33.89° C 56% 1014.9 hPa 0 mm - - -
1788626617 33.89° C 53% 1015.2 hPa 0 mm - - -
1788625973 33.89° C 53% 1015.2 hPa 0 mm - - -
1788625293 33.33° C 58% 1015.2 hPa 0 mm - - -
1788624630 32.78° C 62% 1015.2 hPa 0 mm - - -
1788623968 32.78° C 63% 1015.5 hPa 0 mm - - -
1788623305 33.33° C 63% 1015.5 hPa 0 mm - - -
1788622643 33.33° C 64% 1015.5 hPa 0 mm - - -
1788621981 32.78° C 67% 1015.5 hPa 0 mm - - -
1788621318 32.78° C 67% 1015.5 hPa 0 mm - - -
1788620656 32.22° C 71% 1015.5 hPa 0 mm - - -
1788619993 31.67° C 73% 1015.9 hPa 0 mm - - -
1788619331 31.11° C 76% 1015.9 hPa 0 mm - - -
1788618669 30.56° C 78% 1015.9 hPa 0 mm - - -
1788618006 30° C 80% 1015.9 hPa 0 mm - - -
1788617343 29.44° C 84% 1015.9 hPa 0 mm - - -
1788616681 28.89° C 87% 1015.9 hPa 0 mm - - -
1788616018 28.33° C 94% 1015.9 hPa 0 mm - - -
1788615356 27.22° C 100% 1016.2 hPa 0 mm - - -
1788614694 26.67° C 100% 1016.2 hPa 0 mm - - -
1788614031 25.56° C 100% 1016.2 hPa 0 mm - - -
1788613369 25° C 100% 1016.2 hPa 0 mm - - -
1788612706 24.44° C 100% 1016.2 hPa 0 mm - - -

* Rain latest hour (hover to see other rain measurements)
** Current wind speed in m/s (hover to see current wind gust speed)